sensor_id;sensor_type;location;lat;lon;timestamp;P1;durP1;ratioP1;P2;durP2;ratioP2
1410;SDS011;700;51.906;8.404;2022-09-09T00:06:28;4.70;;;1.60;;
1410;SDS011;700;51.906;8.404;2022-09-09T00:17:06;4.30;;;1.63;;
1410;SDS011;700;51.906;8.404;2022-09-09T00:27:21;4.80;;;1.60;;
1410;SDS011;700;51.906;8.404;2022-09-09T00:32:42;4.30;;;1.97;;
1410;SDS011;700;51.906;8.404;2022-09-09T00:37:44;3.47;;;1.50;;
1410;SDS011;700;51.906;8.404;2022-09-09T00:42:49;6.37;;;1.60;;
1410;SDS011;700;51.906;8.404;2022-09-09T00:48:13;4.30;;;1.80;;
1410;SDS011;700;51.906;8.404;2022-09-09T00:53:28;7.80;;;1.93;;
1410;SDS011;700;51.906;8.404;2022-09-09T01:04:26;3.90;;;1.80;;
1410;SDS011;700;51.906;8.404;2022-09-09T01:15:00;4.50;;;2.57;;
1410;SDS011;700;51.906;8.404;2022-09-09T01:20:19;4.93;;;1.60;;
1410;SDS011;700;51.906;8.404;2022-09-09T01:31:09;4.53;;;2.30;;
1410;SDS011;700;51.906;8.404;2022-09-09T01:36:47;2.97;;;1.50;;
1410;SDS011;700;51.906;8.404;2022-09-09T01:41:44;4.30;;;1.60;;
1410;SDS011;700;51.906;8.404;2022-09-09T01:46:47;3.10;;;1.60;;
1410;SDS011;700;51.906;8.404;2022-09-09T01:51:51;4.47;;;1.50;;
1410;SDS011;700;51.906;8.404;2022-09-09T02:12:43;3.50;;;1.63;;
1410;SDS011;700;51.906;8.404;2022-09-09T02:17:48;4.47;;;1.43;;
1410;SDS011;700;51.906;8.404;2022-09-09T02:22:51;4.53;;;1.50;;
1410;SDS011;700;51.906;8.404;2022-09-09T02:27:54;2.83;;;1.50;;
1410;SDS011;700;51.906;8.404;2022-09-09T02:32:58;4.37;;;1.70;;
1410;SDS011;700;51.906;8.404;2022-09-09T02:38:04;4.90;;;1.70;;
1410;SDS011;700;51.906;8.404;2022-09-09T02:43:09;3.20;;;1.90;;
1410;SDS011;700;51.906;8.404;2022-09-09T02:48:17;3.73;;;1.90;;
1410;SDS011;700;51.906;8.404;2022-09-09T02:53:32;5.40;;;1.90;;
1410;SDS011;700;51.906;8.404;2022-09-09T02:58:45;3.10;;;2.00;;
1410;SDS011;700;51.906;8.404;2022-09-09T03:03:47;5.60;;;1.80;;
1410;SDS011;700;51.906;8.404;2022-09-09T03:08:48;4.80;;;1.97;;
1410;SDS011;700;51.906;8.404;2022-09-09T03:13:53;6.40;;;2.40;;
1410;SDS011;700;51.906;8.404;2022-09-09T03:18:57;4.63;;;2.30;;
1410;SDS011;700;51.906;8.404;2022-09-09T03:23:57;3.70;;;1.80;;
1410;SDS011;700;51.906;8.404;2022-09-09T03:29:03;3.60;;;2.20;;
1410;SDS011;700;51.906;8.404;2022-09-09T03:34:06;5.20;;;2.00;;
1410;SDS011;700;51.906;8.404;2022-09-09T03:39:10;5.13;;;2.30;;
1410;SDS011;700;51.906;8.404;2022-09-09T03:44:14;4.80;;;2.47;;
1410;SDS011;700;51.906;8.404;2022-09-09T03:49:15;4.27;;;1.70;;
1410;SDS011;700;51.906;8.404;2022-09-09T03:54:20;3.00;;;2.00;;
1410;SDS011;700;51.906;8.404;2022-09-09T03:59:20;4.60;;;2.00;;
1410;SDS011;700;51.906;8.404;2022-09-09T04:04:23;9.00;;;3.27;;
1410;SDS011;700;51.906;8.404;2022-09-09T04:09:26;6.27;;;3.40;;
1410;SDS011;700;51.906;8.404;2022-09-09T04:14:29;6.50;;;2.40;;
1410;SDS011;700;51.906;8.404;2022-09-09T04:19:34;5.60;;;2.80;;
1410;SDS011;700;51.906;8.404;2022-09-09T04:24:35;5.17;;;2.73;;
1410;SDS011;700;51.906;8.404;2022-09-09T04:29:36;8.13;;;3.60;;
1410;SDS011;700;51.906;8.404;2022-09-09T04:34:36;5.63;;;3.27;;
1410;SDS011;700;51.906;8.404;2022-09-09T04:39:37;6.27;;;2.60;;
1410;SDS011;700;51.906;8.404;2022-09-09T04:44:38;6.63;;;3.27;;
1410;SDS011;700;51.906;8.404;2022-09-09T04:49:39;4.87;;;2.57;;
1410;SDS011;700;51.906;8.404;2022-09-09T04:54:39;6.40;;;2.57;;
1410;SDS011;700;51.906;8.404;2022-09-09T04:59:40;6.47;;;2.90;;
1410;SDS011;700;51.906;8.404;2022-09-09T05:04:43;5.13;;;2.50;;
1410;SDS011;700;51.906;8.404;2022-09-09T05:09:43;4.47;;;2.80;;
1410;SDS011;700;51.906;8.404;2022-09-09T05:14:45;6.47;;;2.50;;
1410;SDS011;700;51.906;8.404;2022-09-09T05:19:48;3.77;;;2.17;;
1410;SDS011;700;51.906;8.404;2022-09-09T05:24:51;6.93;;;3.10;;
1410;SDS011;700;51.906;8.404;2022-09-09T05:29:54;3.43;;;2.07;;
1410;SDS011;700;51.906;8.404;2022-09-09T05:34:56;6.80;;;2.30;;
1410;SDS011;700;51.906;8.404;2022-09-09T05:39:58;5.00;;;2.40;;
1410;SDS011;700;51.906;8.404;2022-09-09T05:45:01;6.67;;;2.70;;
1410;SDS011;700;51.906;8.404;2022-09-09T05:50:01;7.70;;;2.70;;
1410;SDS011;700;51.906;8.404;2022-09-09T05:55:05;5.27;;;2.40;;
1410;SDS011;700;51.906;8.404;2022-09-09T06:00:07;4.53;;;2.20;;
1410;SDS011;700;51.906;8.404;2022-09-09T06:05:10;6.30;;;2.60;;
1410;SDS011;700;51.906;8.404;2022-09-09T06:10:11;5.83;;;2.50;;
1410;SDS011;700;51.906;8.404;2022-09-09T06:15:13;5.50;;;2.30;;
1410;SDS011;700;51.906;8.404;2022-09-09T06:20:14;4.83;;;2.50;;
1410;SDS011;700;51.906;8.404;2022-09-09T06:25:17;4.00;;;1.83;;
1410;SDS011;700;51.906;8.404;2022-09-09T06:30:18;4.33;;;1.73;;
1410;SDS011;700;51.906;8.404;2022-09-09T06:35:19;4.60;;;2.20;;
1410;SDS011;700;51.906;8.404;2022-09-09T06:40:22;3.23;;;1.90;;
1410;SDS011;700;51.906;8.404;2022-09-09T06:45:25;4.73;;;2.23;;
1410;SDS011;700;51.906;8.404;2022-09-09T06:50:25;6.90;;;2.63;;
1410;SDS011;700;51.906;8.404;2022-09-09T06:55:26;6.70;;;2.27;;
1410;SDS011;700;51.906;8.404;2022-09-09T07:00:29;6.50;;;2.43;;
1410;SDS011;700;51.906;8.404;2022-09-09T07:05:31;5.70;;;2.77;;
1410;SDS011;700;51.906;8.404;2022-09-09T07:10:32;6.90;;;2.70;;
1410;SDS011;700;51.906;8.404;2022-09-09T07:15:34;8.47;;;2.23;;
1410;SDS011;700;51.906;8.404;2022-09-09T07:20:34;4.63;;;2.33;;
1410;SDS011;700;51.906;8.404;2022-09-09T07:25:35;7.67;;;3.03;;
1410;SDS011;700;51.906;8.404;2022-09-09T07:30:45;5.00;;;2.50;;
1410;SDS011;700;51.906;8.404;2022-09-09T07:36:16;6.57;;;3.30;;
1410;SDS011;700;51.906;8.404;2022-09-09T07:41:27;5.57;;;2.93;;
1410;SDS011;700;51.906;8.404;2022-09-09T07:46:34;5.57;;;3.13;;
1410;SDS011;700;51.906;8.404;2022-09-09T07:51:40;5.67;;;2.50;;
1410;SDS011;700;51.906;8.404;2022-09-09T07:56:45;5.07;;;2.20;;
1410;SDS011;700;51.906;8.404;2022-09-09T08:01:52;3.87;;;1.73;;
1410;SDS011;700;51.906;8.404;2022-09-09T08:06:56;5.03;;;1.70;;
1410;SDS011;700;51.906;8.404;2022-09-09T08:12:01;6.63;;;2.00;;
1410;SDS011;700;51.906;8.404;2022-09-09T08:17:02;4.03;;;1.40;;
1410;SDS011;700;51.906;8.404;2022-09-09T08:22:05;8.53;;;2.10;;
1410;SDS011;700;51.906;8.404;2022-09-09T08:27:10;3.77;;;1.40;;
1410;SDS011;700;51.906;8.404;2022-09-09T08:32:13;4.00;;;1.53;;
1410;SDS011;700;51.906;8.404;2022-09-09T08:37:14;7.03;;;1.50;;
1410;SDS011;700;51.906;8.404;2022-09-09T08:47:52;5.23;;;2.20;;
1410;SDS011;700;51.906;8.404;2022-09-09T08:53:23;4.57;;;1.30;;
1410;SDS011;700;51.906;8.404;2022-09-09T09:03:30;3.50;;;1.40;;
1410;SDS011;700;51.906;8.404;2022-09-09T09:13:50;4.53;;;1.47;;
1410;SDS011;700;51.906;8.404;2022-09-09T09:19:14;4.80;;;1.80;;
1410;SDS011;700;51.906;8.404;2022-09-09T09:24:20;4.00;;;1.67;;
1410;SDS011;700;51.906;8.404;2022-09-09T09:29:42;4.70;;;1.20;;
1410;SDS011;700;51.906;8.404;2022-09-09T09:34:49;4.80;;;1.03;;
1410;SDS011;700;51.906;8.404;2022-09-09T09:39:53;3.00;;;1.30;;
1410;SDS011;700;51.906;8.404;2022-09-09T09:45:06;4.23;;;1.47;;
1410;SDS011;700;51.906;8.404;2022-09-09T09:50:18;2.30;;;1.10;;
1410;SDS011;700;51.906;8.404;2022-09-09T09:55:20;4.03;;;1.30;;
1410;SDS011;700;51.906;8.404;2022-09-09T10:00:24;3.87;;;1.27;;
1410;SDS011;700;51.906;8.404;2022-09-09T10:05:28;3.90;;;1.43;;
1410;SDS011;700;51.906;8.404;2022-09-09T10:15:53;3.13;;;1.00;;
1410;SDS011;700;51.906;8.404;2022-09-09T10:37:20;3.53;;;1.63;;
1410;SDS011;700;51.906;8.404;2022-09-09T10:42:38;4.37;;;1.60;;
1410;SDS011;700;51.906;8.404;2022-09-09T10:53:18;4.13;;;1.60;;
1410;SDS011;700;51.906;8.404;2022-09-09T10:58:25;3.23;;;1.13;;
1410;SDS011;700;51.906;8.404;2022-09-09T11:03:36;4.37;;;1.80;;
1410;SDS011;700;51.906;8.404;2022-09-09T11:08:40;3.50;;;1.33;;
1410;SDS011;700;51.906;8.404;2022-09-09T11:18:55;4.30;;;1.80;;
1410;SDS011;700;51.906;8.404;2022-09-09T11:24:36;3.40;;;1.47;;
1410;SDS011;700;51.906;8.404;2022-09-09T11:30:19;2.97;;;1.10;;
1410;SDS011;700;51.906;8.404;2022-09-09T11:40:39;3.23;;;1.40;;
1410;SDS011;700;51.906;8.404;2022-09-09T11:45:40;4.97;;;1.27;;
1410;SDS011;700;51.906;8.404;2022-09-09T11:50:43;4.57;;;1.20;;
1410;SDS011;700;51.906;8.404;2022-09-09T11:55:43;4.20;;;1.27;;
1410;SDS011;700;51.906;8.404;2022-09-09T12:00:47;3.53;;;1.07;;
1410;SDS011;700;51.906;8.404;2022-09-09T12:05:52;4.57;;;1.33;;
1410;SDS011;700;51.906;8.404;2022-09-09T12:10:58;3.20;;;1.00;;
1410;SDS011;700;51.906;8.404;2022-09-09T12:16:03;2.83;;;0.93;;
1410;SDS011;700;51.906;8.404;2022-09-09T12:26:30;3.90;;;1.10;;
1410;SDS011;700;51.906;8.404;2022-09-09T12:42:39;5.10;;;1.40;;
1410;SDS011;700;51.906;8.404;2022-09-09T12:53:13;3.90;;;1.13;;
1410;SDS011;700;51.906;8.404;2022-09-09T12:58:17;5.53;;;1.30;;
1410;SDS011;700;51.906;8.404;2022-09-09T13:03:20;4.93;;;1.10;;
1410;SDS011;700;51.906;8.404;2022-09-09T13:08:21;3.30;;;1.43;;
1410;SDS011;700;51.906;8.404;2022-09-09T13:13:23;3.67;;;1.10;;
1410;SDS011;700;51.906;8.404;2022-09-09T13:18:30;2.90;;;1.13;;
1410;SDS011;700;51.906;8.404;2022-09-09T13:23:34;2.23;;;0.83;;
1410;SDS011;700;51.906;8.404;2022-09-09T13:28:39;2.70;;;0.90;;
1410;SDS011;700;51.906;8.404;2022-09-09T13:33:39;2.57;;;0.80;;
1410;SDS011;700;51.906;8.404;2022-09-09T13:43:52;2.60;;;0.90;;
1410;SDS011;700;51.906;8.404;2022-09-09T13:48:58;2.33;;;0.90;;
1410;SDS011;700;51.906;8.404;2022-09-09T13:54:21;3.97;;;1.27;;
1410;SDS011;700;51.906;8.404;2022-09-09T13:59:22;3.60;;;1.10;;
1410;SDS011;700;51.906;8.404;2022-09-09T14:04:24;2.87;;;1.00;;
1410;SDS011;700;51.906;8.404;2022-09-09T14:09:27;2.43;;;0.90;;
1410;SDS011;700;51.906;8.404;2022-09-09T14:14:30;3.07;;;0.80;;
1410;SDS011;700;51.906;8.404;2022-09-09T14:19:33;4.20;;;1.10;;
1410;SDS011;700;51.906;8.404;2022-09-09T14:24:34;6.10;;;1.90;;
1410;SDS011;700;51.906;8.404;2022-09-09T14:29:35;3.00;;;1.00;;
1410;SDS011;700;51.906;8.404;2022-09-09T14:34:35;5.97;;;1.03;;
1410;SDS011;700;51.906;8.404;2022-09-09T14:39:36;8.57;;;1.33;;
1410;SDS011;700;51.906;8.404;2022-09-09T14:44:37;3.70;;;1.20;;
1410;SDS011;700;51.906;8.404;2022-09-09T14:49:38;4.27;;;2.33;;
1410;SDS011;700;51.906;8.404;2022-09-09T14:54:38;3.40;;;0.97;;
1410;SDS011;700;51.906;8.404;2022-09-09T14:59:42;3.30;;;1.03;;
1410;SDS011;700;51.906;8.404;2022-09-09T15:04:44;3.57;;;0.97;;
1410;SDS011;700;51.906;8.404;2022-09-09T15:09:49;3.00;;;1.07;;
1410;SDS011;700;51.906;8.404;2022-09-09T15:14:50;3.00;;;0.93;;
1410;SDS011;700;51.906;8.404;2022-09-09T15:19:52;3.33;;;1.40;;
1410;SDS011;700;51.906;8.404;2022-09-09T15:24:53;5.00;;;1.37;;
1410;SDS011;700;51.906;8.404;2022-09-09T15:29:56;4.40;;;1.33;;
1410;SDS011;700;51.906;8.404;2022-09-09T15:34:56;3.33;;;1.33;;
1410;SDS011;700;51.906;8.404;2022-09-09T15:39:59;8.63;;;2.50;;
1410;SDS011;700;51.906;8.404;2022-09-09T15:45:01;4.87;;;2.30;;
1410;SDS011;700;51.906;8.404;2022-09-09T15:50:01;5.57;;;1.80;;
1410;SDS011;700;51.906;8.404;2022-09-09T15:55:04;6.30;;;2.80;;
1410;SDS011;700;51.906;8.404;2022-09-09T16:00:08;4.57;;;1.87;;
1410;SDS011;700;51.906;8.404;2022-09-09T16:05:12;4.90;;;2.53;;
1410;SDS011;700;51.906;8.404;2022-09-09T16:10:15;5.33;;;2.90;;
1410;SDS011;700;51.906;8.404;2022-09-09T16:15:16;3.70;;;1.50;;
1410;SDS011;700;51.906;8.404;2022-09-09T16:20:19;2.80;;;1.10;;
1410;SDS011;700;51.906;8.404;2022-09-09T16:25:22;3.13;;;1.30;;
1410;SDS011;700;51.906;8.404;2022-09-09T16:30:25;4.30;;;1.43;;
1410;SDS011;700;51.906;8.404;2022-09-09T16:35:26;6.20;;;1.73;;
1410;SDS011;700;51.906;8.404;2022-09-09T16:40:26;4.83;;;1.57;;
1410;SDS011;700;51.906;8.404;2022-09-09T16:45:27;5.80;;;1.50;;
1410;SDS011;700;51.906;8.404;2022-09-09T16:50:28;2.50;;;1.17;;
1410;SDS011;700;51.906;8.404;2022-09-09T16:55:31;3.63;;;1.37;;
1410;SDS011;700;51.906;8.404;2022-09-09T17:00:32;2.13;;;1.10;;
1410;SDS011;700;51.906;8.404;2022-09-09T17:05:39;2.57;;;1.10;;
1410;SDS011;700;51.906;8.404;2022-09-09T17:10:42;6.10;;;1.37;;
1410;SDS011;700;51.906;8.404;2022-09-09T17:15:43;2.50;;;1.10;;
1410;SDS011;700;51.906;8.404;2022-09-09T17:20:46;3.70;;;1.27;;
1410;SDS011;700;51.906;8.404;2022-09-09T17:25:55;5.63;;;3.73;;
1410;SDS011;700;51.906;8.404;2022-09-09T17:30:59;2.93;;;1.23;;
1410;SDS011;700;51.906;8.404;2022-09-09T17:36:07;2.50;;;1.30;;
1410;SDS011;700;51.906;8.404;2022-09-09T17:41:09;5.20;;;1.73;;
1410;SDS011;700;51.906;8.404;2022-09-09T17:46:22;4.00;;;1.40;;
1410;SDS011;700;51.906;8.404;2022-09-09T17:51:25;4.97;;;1.57;;
1410;SDS011;700;51.906;8.404;2022-09-09T17:56:30;3.00;;;1.37;;
1410;SDS011;700;51.906;8.404;2022-09-09T18:01:33;5.10;;;1.30;;
1410;SDS011;700;51.906;8.404;2022-09-09T18:06:38;5.07;;;1.63;;
1410;SDS011;700;51.906;8.404;2022-09-09T18:11:46;3.97;;;1.43;;
1410;SDS011;700;51.906;8.404;2022-09-09T18:16:49;3.50;;;1.30;;
1410;SDS011;700;51.906;8.404;2022-09-09T18:21:52;3.80;;;1.40;;
1410;SDS011;700;51.906;8.404;2022-09-09T18:26:53;3.20;;;1.40;;
1410;SDS011;700;51.906;8.404;2022-09-09T18:31:54;2.73;;;1.10;;
1410;SDS011;700;51.906;8.404;2022-09-09T18:36:55;4.40;;;1.50;;
1410;SDS011;700;51.906;8.404;2022-09-09T18:41:57;3.10;;;1.40;;
1410;SDS011;700;51.906;8.404;2022-09-09T18:46:59;4.23;;;2.00;;
1410;SDS011;700;51.906;8.404;2022-09-09T18:52:02;2.10;;;1.13;;
1410;SDS011;700;51.906;8.404;2022-09-09T18:57:05;4.50;;;1.50;;
1410;SDS011;700;51.906;8.404;2022-09-09T19:02:08;2.17;;;1.00;;
1410;SDS011;700;51.906;8.404;2022-09-09T19:07:12;3.23;;;1.30;;
1410;SDS011;700;51.906;8.404;2022-09-09T19:12:13;2.27;;;1.17;;
1410;SDS011;700;51.906;8.404;2022-09-09T19:17:13;3.70;;;1.30;;
1410;SDS011;700;51.906;8.404;2022-09-09T19:22:15;3.73;;;1.50;;
1410;SDS011;700;51.906;8.404;2022-09-09T19:27:15;3.23;;;1.30;;
1410;SDS011;700;51.906;8.404;2022-09-09T19:32:16;2.77;;;1.13;;
1410;SDS011;700;51.906;8.404;2022-09-09T19:37:17;4.87;;;1.50;;
1410;SDS011;700;51.906;8.404;2022-09-09T19:42:18;2.30;;;1.30;;
1410;SDS011;700;51.906;8.404;2022-09-09T19:47:19;4.70;;;1.57;;
1410;SDS011;700;51.906;8.404;2022-09-09T19:52:19;2.67;;;1.43;;
1410;SDS011;700;51.906;8.404;2022-09-09T19:57:22;3.30;;;1.30;;
1410;SDS011;700;51.906;8.404;2022-09-09T20:02:26;3.80;;;1.50;;
1410;SDS011;700;51.906;8.404;2022-09-09T20:07:27;4.90;;;1.50;;
1410;SDS011;700;51.906;8.404;2022-09-09T20:12:28;4.47;;;1.37;;
1410;SDS011;700;51.906;8.404;2022-09-09T20:17:29;4.43;;;1.97;;
1410;SDS011;700;51.906;8.404;2022-09-09T20:22:32;4.30;;;1.43;;
1410;SDS011;700;51.906;8.404;2022-09-09T20:27:35;2.80;;;1.40;;
1410;SDS011;700;51.906;8.404;2022-09-09T20:32:36;3.37;;;1.40;;
1410;SDS011;700;51.906;8.404;2022-09-09T20:37:38;2.90;;;1.27;;
1410;SDS011;700;51.906;8.404;2022-09-09T20:42:39;3.10;;;1.23;;
1410;SDS011;700;51.906;8.404;2022-09-09T20:47:40;3.47;;;1.07;;
1410;SDS011;700;51.906;8.404;2022-09-09T20:52:41;5.90;;;1.70;;
1410;SDS011;700;51.906;8.404;2022-09-09T20:57:41;3.07;;;1.10;;
1410;SDS011;700;51.906;8.404;2022-09-09T21:02:42;3.50;;;1.67;;
1410;SDS011;700;51.906;8.404;2022-09-09T21:07:43;5.33;;;1.50;;
1410;SDS011;700;51.906;8.404;2022-09-09T21:12:46;4.53;;;1.53;;
1410;SDS011;700;51.906;8.404;2022-09-09T21:17:49;2.37;;;0.93;;
1410;SDS011;700;51.906;8.404;2022-09-09T21:22:50;2.97;;;1.30;;
1410;SDS011;700;51.906;8.404;2022-09-09T21:27:53;2.60;;;1.23;;
1410;SDS011;700;51.906;8.404;2022-09-09T21:32:54;3.10;;;1.60;;
1410;SDS011;700;51.906;8.404;2022-09-09T21:37:54;2.53;;;1.30;;
1410;SDS011;700;51.906;8.404;2022-09-09T21:42:55;3.70;;;1.50;;
1410;SDS011;700;51.906;8.404;2022-09-09T21:47:58;2.53;;;1.00;;
1410;SDS011;700;51.906;8.404;2022-09-09T21:53:01;3.13;;;1.20;;
1410;SDS011;700;51.906;8.404;2022-09-09T21:58:02;2.10;;;1.20;;
1410;SDS011;700;51.906;8.404;2022-09-09T22:03:06;2.27;;;1.20;;
1410;SDS011;700;51.906;8.404;2022-09-09T22:08:10;2.00;;;1.00;;
1410;SDS011;700;51.906;8.404;2022-09-09T22:13:15;4.00;;;1.40;;
1410;SDS011;700;51.906;8.404;2022-09-09T22:18:16;3.00;;;1.23;;
1410;SDS011;700;51.906;8.404;2022-09-09T22:23:18;3.70;;;1.97;;
1410;SDS011;700;51.906;8.404;2022-09-09T22:28:22;5.13;;;1.70;;
1410;SDS011;700;51.906;8.404;2022-09-09T22:33:23;2.73;;;1.50;;
1410;SDS011;700;51.906;8.404;2022-09-09T22:38:26;2.90;;;1.40;;
1410;SDS011;700;51.906;8.404;2022-09-09T22:43:29;2.50;;;1.37;;
1410;SDS011;700;51.906;8.404;2022-09-09T22:48:34;3.13;;;1.40;;
1410;SDS011;700;51.906;8.404;2022-09-09T22:53:37;3.37;;;1.97;;
1410;SDS011;700;51.906;8.404;2022-09-09T22:58:39;3.00;;;1.73;;
1410;SDS011;700;51.906;8.404;2022-09-09T23:03:40;3.67;;;1.60;;
1410;SDS011;700;51.906;8.404;2022-09-09T23:08:45;5.33;;;1.90;;
1410;SDS011;700;51.906;8.404;2022-09-09T23:13:51;3.83;;;1.80;;
1410;SDS011;700;51.906;8.404;2022-09-09T23:18:53;3.17;;;1.80;;
1410;SDS011;700;51.906;8.404;2022-09-09T23:23:57;3.40;;;2.00;;
1410;SDS011;700;51.906;8.404;2022-09-09T23:28:59;3.33;;;1.70;;
1410;SDS011;700;51.906;8.404;2022-09-09T23:34:04;4.30;;;1.70;;
1410;SDS011;700;51.906;8.404;2022-09-09T23:39:05;4.00;;;1.87;;
1410;SDS011;700;51.906;8.404;2022-09-09T23:44:09;4.60;;;1.87;;
1410;SDS011;700;51.906;8.404;2022-09-09T23:49:11;9.70;;;2.60;;
1410;SDS011;700;51.906;8.404;2022-09-09T23:54:14;2.70;;;1.90;;
1410;SDS011;700;51.906;8.404;2022-09-09T23:59:15;3.03;;;1.90;;
